sensor_id;sensor_type;location;lat;lon;timestamp;pressure;altitude;pressure_sealevel;temperature;humidity
44297;BME280;51842;47.450;8.654;2023-09-19T00:00:46;95433.16;;;15.33;100.00
44297;BME280;51842;47.450;8.654;2023-09-19T00:03:15;95424.97;;;15.38;100.00
44297;BME280;51842;47.450;8.654;2023-09-19T00:05:42;95429.97;;;15.45;100.00
44297;BME280;51842;47.450;8.654;2023-09-19T00:08:11;95428.28;;;15.49;100.00
44297;BME280;51842;47.450;8.654;2023-09-19T00:10:39;95419.63;;;15.52;100.00
44297;BME280;51842;47.450;8.654;2023-09-19T00:13:06;95425.47;;;15.54;100.00
44297;BME280;51842;47.450;8.654;2023-09-19T00:15:46;95429.94;;;15.59;100.00
44297;BME280;51842;47.450;8.654;2023-09-19T00:18:15;95427.56;;;15.57;100.00
44297;BME280;51842;47.450;8.654;2023-09-19T00:20:42;95428.38;;;15.58;100.00
44297;BME280;51842;47.450;8.654;2023-09-19T00:23:08;95437.50;;;15.57;100.00
44297;BME280;51842;47.450;8.654;2023-09-19T00:25:37;95433.44;;;15.59;100.00
44297;BME280;51842;47.450;8.654;2023-09-19T00:28:07;95438.28;;;15.57;100.00
44297;BME280;51842;47.450;8.654;2023-09-19T00:30:34;95432.44;;;15.55;100.00
44297;BME280;51842;47.450;8.654;2023-09-19T00:33:00;95435.53;;;15.48;100.00
44297;BME280;51842;47.450;8.654;2023-09-19T00:35:27;95431.25;;;15.47;100.00
44297;BME280;51842;47.450;8.654;2023-09-19T00:37:53;95432.25;;;15.52;100.00
44297;BME280;51842;47.450;8.654;2023-09-19T00:40:20;95444.66;;;15.47;100.00
44297;BME280;51842;47.450;8.654;2023-09-19T00:42:48;95439.88;;;15.44;100.00
44297;BME280;51842;47.450;8.654;2023-09-19T00:45:16;95430.25;;;15.43;100.00
44297;BME280;51842;47.450;8.654;2023-09-19T00:47:48;95436.13;;;15.45;100.00
44297;BME280;51842;47.450;8.654;2023-09-19T00:50:18;95444.97;;;15.46;100.00
44297;BME280;51842;47.450;8.654;2023-09-19T00:52:47;95439.59;;;15.46;100.00
44297;BME280;51842;47.450;8.654;2023-09-19T00:55:16;95436.13;;;15.45;100.00
44297;BME280;51842;47.450;8.654;2023-09-19T00:57:45;95439.09;;;15.44;100.00
44297;BME280;51842;47.450;8.654;2023-09-19T01:00:12;95441.97;;;15.47;100.00
44297;BME280;51842;47.450;8.654;2023-09-19T01:02:44;95434.25;;;15.46;100.00
44297;BME280;51842;47.450;8.654;2023-09-19T01:05:11;95443.09;;;15.46;100.00
44297;BME280;51842;47.450;8.654;2023-09-19T01:07:38;95437.22;;;15.44;100.00
44297;BME280;51842;47.450;8.654;2023-09-19T01:10:08;95437.00;;;15.41;100.00
44297;BME280;51842;47.450;8.654;2023-09-19T01:13:21;95434.31;;;15.41;100.00
44297;BME280;51842;47.450;8.654;2023-09-19T01:16:32;95444.00;;;15.42;100.00
44297;BME280;51842;47.450;8.654;2023-09-19T01:22:29;95445.66;;;15.38;100.00
44297;BME280;51842;47.450;8.654;2023-09-19T01:30:58;95451.03;;;15.38;100.00
44297;BME280;51842;47.450;8.654;2023-09-19T01:33:25;95452.91;;;15.37;100.00
44297;BME280;51842;47.450;8.654;2023-09-19T01:35:52;95460.97;;;15.37;100.00
44297;BME280;51842;47.450;8.654;2023-09-19T01:38:19;95455.41;;;15.34;100.00
44297;BME280;51842;47.450;8.654;2023-09-19T01:41:03;95459.47;;;15.31;100.00
44297;BME280;51842;47.450;8.654;2023-09-19T01:43:42;95450.72;;;15.25;100.00
44297;BME280;51842;47.450;8.654;2023-09-19T01:46:30;95453.00;;;15.18;100.00
44297;BME280;51842;47.450;8.654;2023-09-19T01:51:56;95452.41;;;15.08;100.00
44297;BME280;51842;47.450;8.654;2023-09-19T01:54:52;95457.53;;;15.04;100.00
44297;BME280;51842;47.450;8.654;2023-09-19T01:57:29;95461.91;;;15.00;100.00
44297;BME280;51842;47.450;8.654;2023-09-19T02:00:10;95459.03;;;14.96;100.00
44297;BME280;51842;47.450;8.654;2023-09-19T02:02:46;95460.59;;;14.97;100.00
44297;BME280;51842;47.450;8.654;2023-09-19T02:05:13;95456.53;;;15.00;100.00
44297;BME280;51842;47.450;8.654;2023-09-19T02:07:48;95457.34;;;15.00;100.00
44297;BME280;51842;47.450;8.654;2023-09-19T02:10:14;95456.53;;;15.00;100.00
44297;BME280;51842;47.450;8.654;2023-09-19T02:12:40;95455.44;;;15.01;100.00
44297;BME280;51842;47.450;8.654;2023-09-19T02:15:06;95451.97;;;15.00;100.00
44297;BME280;51842;47.450;8.654;2023-09-19T02:17:32;95447.91;;;15.03;100.00
44297;BME280;51842;47.450;8.654;2023-09-19T02:19:58;95461.03;;;15.04;100.00
44297;BME280;51842;47.450;8.654;2023-09-19T02:22:29;95464.22;;;15.07;100.00
44297;BME280;51842;47.450;8.654;2023-09-19T02:24:55;95456.66;;;15.09;100.00
44297;BME280;51842;47.450;8.654;2023-09-19T02:27:24;95467.59;;;15.12;100.00
44297;BME280;51842;47.450;8.654;2023-09-19T02:29:49;95469.50;;;15.12;100.00
44297;BME280;51842;47.450;8.654;2023-09-19T02:32:15;95472.69;;;15.14;100.00
44297;BME280;51842;47.450;8.654;2023-09-19T02:34:43;95476.16;;;15.14;100.00
44297;BME280;51842;47.450;8.654;2023-09-19T02:37:10;95479.63;;;15.15;100.00
44297;BME280;51842;47.450;8.654;2023-09-19T02:39:36;95471.59;;;15.15;100.00
44297;BME280;51842;47.450;8.654;2023-09-19T02:42:02;95480.16;;;15.17;100.00
44297;BME280;51842;47.450;8.654;2023-09-19T02:44:30;95484.41;;;15.18;100.00
44297;BME280;51842;47.450;8.654;2023-09-19T02:46:55;95484.91;;;15.20;100.00
44297;BME280;51842;47.450;8.654;2023-09-19T02:49:23;95480.53;;;15.24;100.00
44297;BME280;51842;47.450;8.654;2023-09-19T02:51:49;95481.84;;;15.26;100.00
44297;BME280;51842;47.450;8.654;2023-09-19T02:54:15;95471.31;;;15.30;100.00
44297;BME280;51842;47.450;8.654;2023-09-19T02:56:41;95472.88;;;15.31;100.00
44297;BME280;51842;47.450;8.654;2023-09-19T02:59:07;95468.81;;;15.34;100.00
44297;BME280;51842;47.450;8.654;2023-09-19T03:01:36;95461.06;;;15.32;100.00
44297;BME280;51842;47.450;8.654;2023-09-19T03:04:04;95459.97;;;15.33;100.00
44297;BME280;51842;47.450;8.654;2023-09-19T03:06:34;95455.91;;;15.36;100.00
44297;BME280;51842;47.450;8.654;2023-09-19T03:08:59;95458.09;;;15.34;100.00
44297;BME280;51842;47.450;8.654;2023-09-19T03:11:26;95457.91;;;15.30;100.00
44297;BME280;51842;47.450;8.654;2023-09-19T03:13:53;95462.16;;;15.31;100.00
44297;BME280;51842;47.450;8.654;2023-09-19T03:16:19;95458.16;;;15.28;100.00
44297;BME280;51842;47.450;8.654;2023-09-19T03:21:18;95468.81;;;15.20;100.00
44297;BME280;51842;47.450;8.654;2023-09-19T03:23:45;95473.16;;;15.16;100.00
44297;BME280;51842;47.450;8.654;2023-09-19T03:26:12;95474.06;;;15.11;100.00
44297;BME280;51842;47.450;8.654;2023-09-19T03:28:38;95480.03;;;15.08;100.00
44297;BME280;51842;47.450;8.654;2023-09-19T03:31:06;95477.63;;;15.07;100.00
44297;BME280;51842;47.450;8.654;2023-09-19T03:33:32;95475.25;;;15.05;100.00
44297;BME280;51842;47.450;8.654;2023-09-19T03:36:01;95476.63;;;15.02;100.00
44297;BME280;51842;47.450;8.654;2023-09-19T03:38:27;95469.09;;;15.04;100.00
44297;BME280;51842;47.450;8.654;2023-09-19T03:40:54;95474.47;;;15.04;100.00
44297;BME280;51842;47.450;8.654;2023-09-19T03:43:20;95477.63;;;15.07;100.00
44297;BME280;51842;47.450;8.654;2023-09-19T03:45:46;95473.03;;;15.07;100.00
44297;BME280;51842;47.450;8.654;2023-09-19T03:48:15;95478.13;;;15.09;100.00
44297;BME280;51842;47.450;8.654;2023-09-19T03:50:40;95470.59;;;15.11;100.00
44297;BME280;51842;47.450;8.654;2023-09-19T03:53:06;95465.44;;;15.14;100.00
44297;BME280;51842;47.450;8.654;2023-09-19T03:55:35;95461.94;;;15.14;100.00
44297;BME280;51842;47.450;8.654;2023-09-19T03:58:06;95462.44;;;15.16;100.00
44297;BME280;51842;47.450;8.654;2023-09-19T04:00:32;95468.59;;;15.16;100.00
44297;BME280;51842;47.450;8.654;2023-09-19T04:02:59;95469.41;;;15.17;100.00
44297;BME280;51842;47.450;8.654;2023-09-19T04:05:27;95468.09;;;15.14;100.00
44297;BME280;51842;47.450;8.654;2023-09-19T04:07:53;95473.97;;;15.16;100.00
44297;BME280;51842;47.450;8.654;2023-09-19T04:10:19;95469.88;;;15.19;100.00
44297;BME280;51842;47.450;8.654;2023-09-19T04:12:55;95470.69;;;15.19;100.00
44297;BME280;51842;47.450;8.654;2023-09-19T04:15:22;95473.88;;;15.21;100.00
44297;BME280;51842;47.450;8.654;2023-09-19T04:17:50;95474.97;;;15.20;100.00
44297;BME280;51842;47.450;8.654;2023-09-19T04:20:17;95480.81;;;15.22;100.00
44297;BME280;51842;47.450;8.654;2023-09-19T04:22:43;95476.56;;;15.21;100.00
44297;BME280;51842;47.450;8.654;2023-09-19T04:25:09;95474.88;;;15.25;100.00
44297;BME280;51842;47.450;8.654;2023-09-19T04:27:35;95477.75;;;15.29;100.00
44297;BME280;51842;47.450;8.654;2023-09-19T04:30:01;95492.47;;;15.32;100.00
44297;BME280;51842;47.450;8.654;2023-09-19T04:32:29;95490.88;;;15.31;100.00
44297;BME280;51842;47.450;8.654;2023-09-19T04:34:55;95490.56;;;15.32;100.00
44297;BME280;51842;47.450;8.654;2023-09-19T04:37:26;95482.75;;;15.36;100.00
44297;BME280;51842;47.450;8.654;2023-09-19T04:39:51;95491.28;;;15.38;98.83
44297;BME280;51842;47.450;8.654;2023-09-19T04:42:17;95485.31;;;15.41;98.70
44297;BME280;51842;47.450;8.654;2023-09-19T04:44:43;95497.44;;;15.38;98.60
44297;BME280;51842;47.450;8.654;2023-09-19T04:47:09;95498.25;;;15.39;98.57
44297;BME280;51842;47.450;8.654;2023-09-19T04:49:37;95490.69;;;15.41;98.46
44297;BME280;51842;47.450;8.654;2023-09-19T04:52:03;95489.91;;;15.40;98.88
44297;BME280;51842;47.450;8.654;2023-09-19T04:54:29;95495.56;;;15.39;98.31
44297;BME280;51842;47.450;8.654;2023-09-19T04:56:55;95500.13;;;15.38;98.43
44297;BME280;51842;47.450;8.654;2023-09-19T04:59:20;95510.56;;;15.40;98.42
44297;BME280;51842;47.450;8.654;2023-09-19T05:01:46;95510.84;;;15.38;98.00
44297;BME280;51842;47.450;8.654;2023-09-19T05:04:12;95515.44;;;15.38;97.44
44297;BME280;51842;47.450;8.654;2023-09-19T05:06:38;95525.31;;;15.42;97.21
44297;BME280;51842;47.450;8.654;2023-09-19T05:09:04;95521.50;;;15.43;96.83
44297;BME280;51842;47.450;8.654;2023-09-19T05:11:31;95522.03;;;15.45;96.59
44297;BME280;51842;47.450;8.654;2023-09-19T05:13:56;95519.03;;;15.47;96.37
44297;BME280;51842;47.450;8.654;2023-09-19T05:16:22;95529.16;;;15.50;95.45
44297;BME280;51842;47.450;8.654;2023-09-19T05:18:48;95521.13;;;15.50;94.68
44297;BME280;51842;47.450;8.654;2023-09-19T05:21:15;95527.97;;;15.56;95.77
44297;BME280;51842;47.450;8.654;2023-09-19T05:23:40;95529.88;;;15.56;95.67
44297;BME280;51842;47.450;8.654;2023-09-19T05:26:06;95537.13;;;15.55;95.88
44297;BME280;51842;47.450;8.654;2023-09-19T05:28:32;95536.03;;;15.56;96.05
44297;BME280;51842;47.450;8.654;2023-09-19T05:31:02;95544.09;;;15.56;95.85
44297;BME280;51842;47.450;8.654;2023-09-19T05:33:28;95538.44;;;15.58;95.96
44297;BME280;51842;47.450;8.654;2023-09-19T05:35:57;95540.63;;;15.56;95.40
44297;BME280;51842;47.450;8.654;2023-09-19T05:38:23;95539.50;;;15.57;95.56
44297;BME280;51842;47.450;8.654;2023-09-19T05:40:50;95549.19;;;15.58;95.84
44297;BME280;51842;47.450;8.654;2023-09-19T05:43:15;95548.66;;;15.56;95.85
44297;BME280;51842;47.450;8.654;2023-09-19T05:45:41;95550.75;;;15.59;95.75
44297;BME280;51842;47.450;8.654;2023-09-19T05:48:10;95552.84;;;15.62;95.95
44297;BME280;51842;47.450;8.654;2023-09-19T05:50:38;95560.84;;;15.67;96.00
44297;BME280;51842;47.450;8.654;2023-09-19T05:53:04;95559.44;;;15.69;95.80
44297;BME280;51842;47.450;8.654;2023-09-19T05:55:31;95561.06;;;15.70;95.19
44297;BME280;51842;47.450;8.654;2023-09-19T05:57:56;95560.84;;;15.67;95.46
44297;BME280;51842;47.450;8.654;2023-09-19T06:00:24;95561.34;;;15.69;95.31
44297;BME280;51842;47.450;8.654;2023-09-19T06:02:57;95564.69;;;15.61;95.45
44297;BME280;51842;47.450;8.654;2023-09-19T06:05:24;95573.53;;;15.61;96.10
44297;BME280;51842;47.450;8.654;2023-09-19T06:07:53;95569.69;;;15.67;96.54
44297;BME280;51842;47.450;8.654;2023-09-19T06:10:20;95572.88;;;15.69;95.86
44297;BME280;51842;47.450;8.654;2023-09-19T06:12:49;95572.59;;;15.71;96.60
44297;BME280;51842;47.450;8.654;2023-09-19T06:15:16;95572.78;;;15.75;95.81
44297;BME280;51842;47.450;8.654;2023-09-19T06:17:48;95580.63;;;15.85;95.75
44297;BME280;51842;47.450;8.654;2023-09-19T06:20:15;95577.34;;;15.88;96.01
44297;BME280;51842;47.450;8.654;2023-09-19T06:22:44;95571.50;;;15.86;95.81
44297;BME280;51842;47.450;8.654;2023-09-19T06:25:12;95569.22;;;15.93;95.86
44297;BME280;51842;47.450;8.654;2023-09-19T06:27:39;95573.59;;;16.03;95.33
44297;BME280;51842;47.450;8.654;2023-09-19T06:30:09;95580.25;;;16.19;95.64
44297;BME280;51842;47.450;8.654;2023-09-19T06:32:37;95578.81;;;16.35;95.10
44297;BME280;51842;47.450;8.654;2023-09-19T06:35:03;95583.41;;;16.49;93.51
44297;BME280;51842;47.450;8.654;2023-09-19T06:37:29;95582.56;;;16.62;92.83
44297;BME280;51842;47.450;8.654;2023-09-19T06:39:55;95577.47;;;16.60;92.58
44297;BME280;51842;47.450;8.654;2023-09-19T06:42:22;95582.25;;;16.63;91.66
44297;BME280;51842;47.450;8.654;2023-09-19T06:44:49;95580.38;;;16.64;92.23
44297;BME280;51842;47.450;8.654;2023-09-19T06:47:15;95582.34;;;16.72;92.31
44297;BME280;51842;47.450;8.654;2023-09-19T06:49:42;95584.09;;;16.91;91.34
44297;BME280;51842;47.450;8.654;2023-09-19T06:52:11;95593.53;;;17.02;90.84
44297;BME280;51842;47.450;8.654;2023-09-19T06:54:36;95598.78;;;17.07;90.13
44297;BME280;51842;47.450;8.654;2023-09-19T06:57:03;95597.09;;;17.11;89.15
44297;BME280;51842;47.450;8.654;2023-09-19T06:59:29;95596.91;;;17.07;89.81
44297;BME280;51842;47.450;8.654;2023-09-19T07:01:55;95601.00;;;17.05;90.27
44297;BME280;51842;47.450;8.654;2023-09-19T07:04:20;95605.78;;;17.08;90.68
44297;BME280;51842;47.450;8.654;2023-09-19T07:06:52;95607.66;;;17.07;89.94
44297;BME280;51842;47.450;8.654;2023-09-19T07:09:18;95613.03;;;17.07;90.18
44297;BME280;51842;47.450;8.654;2023-09-19T07:11:47;95618.50;;;17.16;89.93
44297;BME280;51842;47.450;8.654;2023-09-19T07:14:13;95613.34;;;17.06;89.86
44297;BME280;51842;47.450;8.654;2023-09-19T07:16:39;95613.53;;;17.09;90.49
44297;BME280;51842;47.450;8.654;2023-09-19T07:19:08;95620.28;;;17.21;89.46
44297;BME280;51842;47.450;8.654;2023-09-19T07:21:34;95609.31;;;17.17;89.72
44297;BME280;51842;47.450;8.654;2023-09-19T07:24:01;95609.69;;;17.24;90.17
44297;BME280;51842;47.450;8.654;2023-09-19T07:26:30;95621.78;;;17.35;89.43
44297;BME280;51842;47.450;8.654;2023-09-19T07:28:56;95617.84;;;17.33;88.08
44297;BME280;51842;47.450;8.654;2023-09-19T07:31:23;95615.94;;;17.33;88.33
44297;BME280;51842;47.450;8.654;2023-09-19T07:33:50;95625.59;;;17.34;88.51
44297;BME280;51842;47.450;8.654;2023-09-19T07:36:17;95618.91;;;17.32;88.48
44297;BME280;51842;47.450;8.654;2023-09-19T07:38:42;95623.25;;;17.42;88.98
44297;BME280;51842;47.450;8.654;2023-09-19T07:41:09;95621.06;;;17.44;89.01
44297;BME280;51842;47.450;8.654;2023-09-19T07:43:36;95628.59;;;17.55;88.95
44297;BME280;51842;47.450;8.654;2023-09-19T07:46:07;95621.16;;;17.61;87.70
44297;BME280;51842;47.450;8.654;2023-09-19T07:48:37;95629.88;;;17.58;87.89
44297;BME280;51842;47.450;8.654;2023-09-19T07:51:08;95637.09;;;17.71;88.36
44297;BME280;51842;47.450;8.654;2023-09-19T07:53:35;95631.00;;;17.88;87.57
44297;BME280;51842;47.450;8.654;2023-09-19T07:56:04;95635.16;;;17.94;86.53
44297;BME280;51842;47.450;8.654;2023-09-19T07:58:31;95640.03;;;17.84;85.67
44297;BME280;51842;47.450;8.654;2023-09-19T08:01:05;95646.88;;;17.90;86.63
44297;BME280;51842;47.450;8.654;2023-09-19T08:03:32;95654.66;;;17.91;85.52
44297;BME280;51842;47.450;8.654;2023-09-19T08:05:59;95648.16;;;17.70;87.58
44297;BME280;51842;47.450;8.654;2023-09-19T08:08:25;95652.13;;;17.72;86.40
44297;BME280;51842;47.450;8.654;2023-09-19T08:10:56;95649.75;;;17.71;87.18
44297;BME280;51842;47.450;8.654;2023-09-19T08:13:26;95645.28;;;17.66;86.61
44297;BME280;51842;47.450;8.654;2023-09-19T08:15:52;95659.72;;;17.48;86.89
44297;BME280;51842;47.450;8.654;2023-09-19T08:18:21;95661.56;;;17.61;87.59
44297;BME280;51842;47.450;8.654;2023-09-19T08:20:51;95656.31;;;17.56;85.83
44297;BME280;51842;47.450;8.654;2023-09-19T08:23:18;95663.09;;;17.53;85.42
44297;BME280;51842;47.450;8.654;2023-09-19T08:25:46;95670.25;;;17.35;86.46
44297;BME280;51842;47.450;8.654;2023-09-19T08:28:12;95667.09;;;17.33;86.29
44297;BME280;51842;47.450;8.654;2023-09-19T08:30:40;95666.69;;;17.26;87.17
44297;BME280;51842;47.450;8.654;2023-09-19T08:33:06;95666.34;;;17.19;86.83
44297;BME280;51842;47.450;8.654;2023-09-19T08:35:33;95665.81;;;17.31;87.20
44297;BME280;51842;47.450;8.654;2023-09-19T08:37:59;95670.66;;;17.43;86.46
44297;BME280;51842;47.450;8.654;2023-09-19T08:40:34;95677.06;;;17.55;85.72
44297;BME280;51842;47.450;8.654;2023-09-19T08:43:02;95667.41;;;17.77;85.35
44297;BME280;51842;47.450;8.654;2023-09-19T08:45:28;95671.94;;;17.90;84.40
44297;BME280;51842;47.450;8.654;2023-09-19T08:50:51;95690.47;;;18.23;82.56
44297;BME280;51842;47.450;8.654;2023-09-19T08:53:31;95679.44;;;18.42;81.51
44297;BME280;51842;47.450;8.654;2023-09-19T08:56:00;95686.25;;;18.39;80.48
44297;BME280;51842;47.450;8.654;2023-09-19T08:58:39;95689.09;;;18.34;79.88
44297;BME280;51842;47.450;8.654;2023-09-19T09:01:07;95689.84;;;18.26;81.10
44297;BME280;51842;47.450;8.654;2023-09-19T09:03:35;95685.28;;;18.35;80.48
44297;BME280;51842;47.450;8.654;2023-09-19T09:06:03;95689.41;;;18.33;79.96
44297;BME280;51842;47.450;8.654;2023-09-19T09:08:31;95678.97;;;18.40;79.67
44297;BME280;51842;47.450;8.654;2023-09-19T09:10:57;95681.88;;;18.61;79.29
44297;BME280;51842;47.450;8.654;2023-09-19T09:13:24;95683.50;;;18.70;79.68
44297;BME280;51842;47.450;8.654;2023-09-19T09:15:52;95686.13;;;18.84;79.81
44297;BME280;51842;47.450;8.654;2023-09-19T09:18:20;95695.34;;;19.01;77.88
44297;BME280;51842;47.450;8.654;2023-09-19T09:20:45;95695.19;;;19.14;78.02
44297;BME280;51842;47.450;8.654;2023-09-19T09:23:12;95692.53;;;19.32;77.79
44297;BME280;51842;47.450;8.654;2023-09-19T09:25:53;95699.31;;;19.21;78.03
44297;BME280;51842;47.450;8.654;2023-09-19T09:28:27;95702.50;;;19.14;77.02
44297;BME280;51842;47.450;8.654;2023-09-19T09:30:57;95690.72;;;19.01;75.72
44297;BME280;51842;47.450;8.654;2023-09-19T09:33:24;95695.38;;;19.27;78.60
44297;BME280;51842;47.450;8.654;2023-09-19T09:35:55;95698.84;;;19.27;75.87
44297;BME280;51842;47.450;8.654;2023-09-19T09:38:29;95694.41;;;19.23;75.72
44297;BME280;51842;47.450;8.654;2023-09-19T09:41:00;95690.59;;;19.06;75.51
44297;BME280;51842;47.450;8.654;2023-09-19T09:43:37;95695.53;;;19.22;75.70
44297;BME280;51842;47.450;8.654;2023-09-19T09:51:38;95694.56;;;19.00;77.64
44297;BME280;51842;47.450;8.654;2023-09-19T09:54:18;95695.16;;;18.88;79.10
44297;BME280;51842;47.450;8.654;2023-09-19T09:57:06;95686.63;;;19.04;76.15
44297;BME280;51842;47.450;8.654;2023-09-19T09:59:54;95688.84;;;19.19;76.09
44297;BME280;51842;47.450;8.654;2023-09-19T10:02:43;95693.78;;;19.60;74.95
44297;BME280;51842;47.450;8.654;2023-09-19T10:05:20;95689.63;;;19.89;74.76
44297;BME280;51842;47.450;8.654;2023-09-19T10:07:47;95692.03;;;19.91;72.81
44297;BME280;51842;47.450;8.654;2023-09-19T10:12:59;95692.16;;;20.50;73.23
44297;BME280;51842;47.450;8.654;2023-09-19T10:15:32;95686.03;;;21.00;70.17
44297;BME280;51842;47.450;8.654;2023-09-19T10:18:01;95686.31;;;21.28;69.88
44297;BME280;51842;47.450;8.654;2023-09-19T10:20:31;95681.56;;;21.67;66.66
44297;BME280;51842;47.450;8.654;2023-09-19T10:23:06;95679.72;;;21.92;63.59
44297;BME280;51842;47.450;8.654;2023-09-19T10:25:42;95670.88;;;22.16;63.43
44297;BME280;51842;47.450;8.654;2023-09-19T10:28:12;95679.25;;;22.23;63.22
44297;BME280;51842;47.450;8.654;2023-09-19T10:30:43;95676.94;;;22.13;64.16
44297;BME280;51842;47.450;8.654;2023-09-19T10:33:21;95679.84;;;22.41;62.90
44297;BME280;51842;47.450;8.654;2023-09-19T10:35:51;95678.38;;;23.17;62.39
44297;BME280;51842;47.450;8.654;2023-09-19T10:38:24;95674.63;;;23.50;60.47
44297;BME280;51842;47.450;8.654;2023-09-19T10:40:54;95677.59;;;23.85;58.25
44297;BME280;51842;47.450;8.654;2023-09-19T10:43:29;95688.59;;;24.49;57.04
44297;BME280;51842;47.450;8.654;2023-09-19T10:46:02;95678.53;;;24.84;55.55
44297;BME280;51842;47.450;8.654;2023-09-19T10:48:31;95679.41;;;25.04;51.21
44297;BME280;51842;47.450;8.654;2023-09-19T10:51:15;95678.75;;;24.44;52.30
44297;BME280;51842;47.450;8.654;2023-09-19T10:53:55;95682.50;;;24.39;55.20
44297;BME280;51842;47.450;8.654;2023-09-19T10:56:38;95678.97;;;24.07;52.99
44297;BME280;51842;47.450;8.654;2023-09-19T10:59:16;95683.84;;;23.86;53.56
44297;BME280;51842;47.450;8.654;2023-09-19T11:01:52;95684.38;;;23.91;54.55
44297;BME280;51842;47.450;8.654;2023-09-19T11:07:14;95670.91;;;23.54;56.61
44297;BME280;51842;47.450;8.654;2023-09-19T11:09:54;95674.03;;;23.56;57.41
44297;BME280;51842;47.450;8.654;2023-09-19T11:14:56;95663.06;;;23.53;58.61
44297;BME280;51842;47.450;8.654;2023-09-19T11:17:36;95657.59;;;23.65;57.53
44297;BME280;51842;47.450;8.654;2023-09-19T11:30:40;95644.88;;;23.13;57.02
44297;BME280;51842;47.450;8.654;2023-09-19T11:33:28;95646.47;;;23.02;57.95
44297;BME280;51842;47.450;8.654;2023-09-19T11:36:09;95643.84;;;23.05;58.56
44297;BME280;51842;47.450;8.654;2023-09-19T11:49:40;95638.00;;;23.03;58.84
44297;BME280;51842;47.450;8.654;2023-09-19T11:52:04;95637.97;;;22.91;59.31
44297;BME280;51842;47.450;8.654;2023-09-19T11:54:32;95632.00;;;22.85;57.71
44297;BME280;51842;47.450;8.654;2023-09-19T11:56:59;95631.53;;;22.83;57.70
44297;BME280;51842;47.450;8.654;2023-09-19T11:59:32;95629.28;;;22.98;58.95
44297;BME280;51842;47.450;8.654;2023-09-19T12:02:08;95619.56;;;22.72;58.40
44297;BME280;51842;47.450;8.654;2023-09-19T12:04:44;95619.97;;;22.86;58.17
44297;BME280;51842;47.450;8.654;2023-09-19T12:07:16;95623.16;;;22.89;56.80
44297;BME280;51842;47.450;8.654;2023-09-19T12:09:44;95606.88;;;22.89;55.28
44297;BME280;51842;47.450;8.654;2023-09-19T12:14:50;95618.75;;;24.24;54.50
44297;BME280;51842;47.450;8.654;2023-09-19T12:17:17;95623.09;;;24.57;53.20
44297;BME280;51842;47.450;8.654;2023-09-19T12:19:55;95618.41;;;24.58;50.92
44297;BME280;51842;47.450;8.654;2023-09-19T12:22:21;95617.44;;;24.34;51.73
44297;BME280;51842;47.450;8.654;2023-09-19T12:24:48;95612.66;;;23.84;52.91
44297;BME280;51842;47.450;8.654;2023-09-19T12:27:14;95612.41;;;23.89;53.29
44297;BME280;51842;47.450;8.654;2023-09-19T12:29:45;95610.41;;;23.58;52.83
44297;BME280;51842;47.450;8.654;2023-09-19T12:32:11;95603.88;;;23.74;53.19
44297;BME280;51842;47.450;8.654;2023-09-19T12:34:37;95598.34;;;23.71;52.51
44297;BME280;51842;47.450;8.654;2023-09-19T12:37:16;95599.78;;;24.12;54.28
44297;BME280;51842;47.450;8.654;2023-09-19T12:40:08;95593.81;;;24.07;52.25
44297;BME280;51842;47.450;8.654;2023-09-19T12:42:47;95591.63;;;24.28;51.43
44297;BME280;51842;47.450;8.654;2023-09-19T12:45:15;95591.53;;;24.56;54.06
44297;BME280;51842;47.450;8.654;2023-09-19T12:48:24;95583.41;;;25.30;51.54
44297;BME280;51842;47.450;8.654;2023-09-19T12:51:10;95572.16;;;25.32;48.30
44297;BME280;51842;47.450;8.654;2023-09-19T12:53:46;95574.44;;;25.49;47.60
44297;BME280;51842;47.450;8.654;2023-09-19T12:56:16;95563.78;;;25.83;47.01
44297;BME280;51842;47.450;8.654;2023-09-19T12:58:57;95566.47;;;26.29;47.21
44297;BME280;51842;47.450;8.654;2023-09-19T13:01:27;95562.78;;;26.41;45.77
44297;BME280;51842;47.450;8.654;2023-09-19T13:04:12;95558.03;;;26.61;44.66
44297;BME280;51842;47.450;8.654;2023-09-19T13:06:41;95555.41;;;26.68;45.38
44297;BME280;51842;47.450;8.654;2023-09-19T13:09:11;95553.72;;;26.60;45.72
44297;BME280;51842;47.450;8.654;2023-09-19T13:11:38;95549.75;;;26.30;45.64
44297;BME280;51842;47.450;8.654;2023-09-19T13:14:27;95549.38;;;26.32;45.43
44297;BME280;51842;47.450;8.654;2023-09-19T13:17:03;95547.94;;;26.95;45.81
44297;BME280;51842;47.450;8.654;2023-09-19T13:19:43;95542.66;;;27.09;45.70
44297;BME280;51842;47.450;8.654;2023-09-19T13:22:41;95548.88;;;26.76;44.15
44297;BME280;51842;47.450;8.654;2023-09-19T13:25:11;95542.19;;;27.04;44.00
44297;BME280;51842;47.450;8.654;2023-09-19T13:27:46;95542.31;;;26.81;43.09
44297;BME280;51842;47.450;8.654;2023-09-19T13:30:14;95542.00;;;26.33;43.10
44297;BME280;51842;47.450;8.654;2023-09-19T13:32:40;95530.00;;;26.64;43.89
44297;BME280;51842;47.450;8.654;2023-09-19T13:35:08;95528.25;;;26.52;43.29
44297;BME280;51842;47.450;8.654;2023-09-19T13:37:38;95525.66;;;26.36;44.06
44297;BME280;51842;47.450;8.654;2023-09-19T13:40:15;95528.09;;;26.45;44.26
44297;BME280;51842;47.450;8.654;2023-09-19T13:42:42;95523.53;;;26.26;43.56
44297;BME280;51842;47.450;8.654;2023-09-19T13:45:08;95521.38;;;26.12;43.31
44297;BME280;51842;47.450;8.654;2023-09-19T13:47:38;95521.47;;;26.42;44.05
44297;BME280;51842;47.450;8.654;2023-09-19T13:50:05;95523.72;;;26.37;43.34
44297;BME280;51842;47.450;8.654;2023-09-19T13:52:31;95522.44;;;26.84;43.14
44297;BME280;51842;47.450;8.654;2023-09-19T13:54:58;95512.69;;;27.16;42.73
44297;BME280;51842;47.450;8.654;2023-09-19T13:57:27;95510.03;;;27.61;40.78
44297;BME280;51842;47.450;8.654;2023-09-19T13:59:55;95508.03;;;27.17;41.75
44297;BME280;51842;47.450;8.654;2023-09-19T14:02:23;95518.13;;;27.47;40.26
44297;BME280;51842;47.450;8.654;2023-09-19T14:04:53;95509.91;;;27.13;40.24
44297;BME280;51842;47.450;8.654;2023-09-19T14:07:18;95508.69;;;27.40;40.77